createdAt,value
2018-09-21T00:02:26.950Z,99.90
2018-09-21T00:04:55.784Z,99.90
2018-09-21T00:07:24.505Z,99.90
2018-09-21T00:09:53.243Z,99.90
2018-09-21T00:12:22.204Z,99.90
2018-09-21T00:14:51.088Z,99.90
2018-09-21T00:17:19.843Z,99.90
2018-09-21T00:19:49.573Z,99.90
2018-09-21T00:22:18.349Z,99.90
2018-09-21T00:24:47.173Z,99.90
2018-09-21T00:27:16.194Z,99.90
2018-09-21T00:29:45.094Z,99.90
2018-09-21T00:32:13.798Z,99.90
2018-09-21T00:34:42.622Z,99.90
2018-09-21T00:37:11.365Z,99.90
2018-09-21T00:39:40.344Z,99.90
2018-09-21T00:42:09.290Z,99.90
2018-09-21T00:44:38.794Z,99.90
2018-09-21T00:47:07.664Z,99.90
2018-09-21T00:49:36.421Z,99.90
2018-09-21T00:52:05.507Z,99.90
2018-09-21T00:54:34.423Z,99.90
2018-09-21T00:57:03.169Z,99.90
2018-09-21T00:59:32.300Z,99.90
2018-09-21T01:02:01.256Z,99.90
2018-09-21T01:04:35.013Z,99.90
2018-09-21T01:07:03.808Z,99.90
2018-09-21T01:09:32.663Z,99.90
2018-09-21T01:12:01.420Z,99.90
2018-09-21T01:14:30.483Z,99.90
2018-09-21T01:16:59.200Z,99.90
2018-09-21T01:19:29.020Z,99.90
2018-09-21T01:21:57.823Z,99.90
2018-09-21T01:24:26.657Z,99.90
2018-09-21T01:26:55.492Z,99.90
2018-09-21T01:29:24.447Z,99.90
2018-09-21T01:31:53.192Z,99.90
2018-09-21T01:34:22.279Z,99.90
2018-09-21T01:36:51.263Z,99.90
2018-09-21T01:39:21.052Z,99.90
2018-09-21T01:41:49.824Z,99.90
2018-09-21T01:44:18.703Z,99.90
2018-09-21T01:46:47.588Z,99.90
2018-09-21T01:49:16.316Z,99.90
2018-09-21T01:51:45.121Z,99.90
2018-09-21T01:54:14.089Z,99.90
2018-09-21T01:56:42.852Z,99.90
2018-09-21T01:59:11.700Z,99.90
2018-09-21T02:01:40.834Z,99.90
2018-09-21T02:04:10.292Z,99.90
2018-09-21T02:06:39.106Z,99.90
2018-09-21T02:09:09.568Z,99.90
2018-09-21T02:11:38.441Z,99.90
2018-09-21T02:14:07.931Z,99.90
2018-09-21T02:16:36.878Z,99.90
2018-09-21T02:19:05.781Z,99.90
2018-09-21T02:21:34.687Z,99.90
2018-09-21T02:24:04.093Z,99.90
2018-09-21T02:26:32.807Z,99.90
2018-09-21T02:29:01.536Z,99.90
2018-09-21T02:31:30.605Z,99.90
2018-09-21T02:33:59.486Z,99.90
2018-09-21T02:36:28.232Z,99.90
2018-09-21T02:38:57.323Z,99.90
2018-09-21T02:41:26.724Z,99.90
2018-09-21T02:43:55.579Z,99.90
2018-09-21T02:46:24.336Z,99.90
2018-09-21T02:48:53.372Z,99.90
2018-09-21T02:51:22.300Z,99.90
2018-09-21T02:53:51.031Z,99.90
2018-09-21T02:56:20.638Z,99.90
2018-09-21T02:58:49.681Z,99.90
2018-09-21T03:01:19.349Z,99.90
2018-09-21T03:03:48.314Z,99.90
2018-09-21T03:06:17.066Z,99.90
2018-09-21T03:08:45.925Z,99.90
2018-09-21T03:11:16.478Z,99.90
2018-09-21T03:13:45.545Z,99.90
2018-09-21T03:16:14.410Z,99.90
2018-09-21T03:18:43.161Z,99.90
2018-09-21T03:21:12.145Z,99.90
2018-09-21T03:23:40.939Z,99.90
2018-09-21T03:26:09.860Z,99.90
2018-09-21T03:28:38.634Z,99.90
2018-09-21T03:31:08.308Z,99.90
2018-09-21T03:33:37.281Z,99.90
2018-09-21T03:36:06.125Z,99.90
2018-09-21T03:38:34.934Z,99.90
2018-09-21T03:41:04.864Z,99.90
2018-09-21T03:43:34.373Z,99.90
2018-09-21T03:46:03.173Z,99.90
2018-09-21T03:48:32.625Z,99.90
2018-09-21T03:51:01.945Z,99.90
2018-09-21T03:53:30.895Z,99.90
2018-09-21T03:55:59.771Z,99.90
2018-09-21T03:58:28.661Z,99.90
2018-09-21T04:00:57.466Z,99.90
2018-09-21T04:03:27.217Z,99.90
2018-09-21T04:05:56.081Z,99.90
2018-09-21T04:08:25.701Z,99.90
2018-09-21T04:10:54.649Z,99.90
2018-09-21T04:13:24.050Z,99.90
2018-09-21T04:15:52.805Z,99.90
2018-09-21T04:18:22.165Z,99.90
2018-09-21T04:20:51.668Z,99.90
2018-09-21T04:23:20.599Z,99.90
2018-09-21T04:25:50.062Z,99.90
2018-09-21T04:28:18.922Z,99.90
2018-09-21T04:30:47.665Z,99.90
2018-09-21T04:33:20.481Z,99.90
2018-09-21T04:35:49.451Z,99.90
2018-09-21T04:38:18.756Z,99.90
2018-09-21T04:40:47.537Z,99.90
2018-09-21T04:43:16.565Z,99.90
2018-09-21T04:45:45.401Z,99.90
2018-09-21T04:48:15.232Z,99.90
2018-09-21T04:50:44.196Z,99.90
2018-09-21T04:53:13.759Z,99.90
2018-09-21T04:55:42.706Z,99.90
2018-09-21T04:58:11.665Z,99.90
2018-09-21T05:00:40.478Z,99.90
2018-09-21T05:03:09.464Z,99.90
2018-09-21T05:05:38.685Z,99.90
2018-09-21T05:08:07.898Z,99.90
2018-09-21T05:10:36.840Z,99.90
2018-09-21T05:13:06.408Z,99.90
2018-09-21T05:15:35.211Z,99.90
2018-09-21T05:18:04.005Z,99.90
2018-09-21T05:20:33.014Z,99.90
2018-09-21T05:23:02.218Z,99.90
2018-09-21T05:25:31.106Z,99.90
2018-09-21T05:27:59.939Z,99.90
2018-09-21T05:30:29.030Z,99.90
2018-09-21T05:32:58.421Z,99.90
2018-09-21T05:35:27.430Z,99.90
2018-09-21T05:37:56.590Z,99.90
2018-09-21T05:40:25.502Z,99.90
2018-09-21T05:42:54.308Z,99.90
2018-09-21T05:45:24.353Z,99.90
2018-09-21T05:48:03.445Z,99.90
2018-09-21T05:50:35.720Z,99.90
2018-09-21T05:53:16.049Z,99.90
2018-09-21T05:55:45.015Z,99.90
2018-09-21T05:58:14.685Z,99.90
2018-09-21T06:00:43.604Z,99.90
2018-09-21T06:03:12.400Z,99.90
2018-09-21T06:05:41.438Z,99.90
2018-09-21T06:08:10.293Z,99.90
2018-09-21T06:10:39.069Z,99.90
2018-09-21T06:13:08.213Z,99.90
2018-09-21T06:15:37.086Z,99.90
2018-09-21T06:18:05.885Z,99.90
2018-09-21T06:20:34.810Z,99.90
2018-09-21T06:23:04.094Z,99.90
2018-09-21T06:25:33.392Z,99.90
2018-09-21T06:28:02.277Z,99.90
2018-09-21T06:30:32.137Z,99.90
2018-09-21T06:33:01.045Z,99.90
2018-09-21T06:35:29.874Z,99.90
2018-09-21T06:37:58.642Z,99.90
2018-09-21T06:40:27.373Z,99.90
2018-09-21T06:42:56.173Z,99.90
2018-09-21T06:45:25.418Z,99.90
2018-09-21T06:47:54.404Z,99.90
2018-09-21T06:50:23.278Z,99.90
2018-09-21T06:52:52.142Z,99.90
2018-09-21T06:55:21.107Z,99.90
2018-09-21T06:57:49.951Z,99.90
2018-09-21T07:00:18.717Z,99.90
2018-09-21T07:02:47.797Z,99.90
2018-09-21T07:05:17.950Z,99.90
2018-09-21T07:07:47.029Z,99.90
2018-09-21T07:10:15.913Z,99.90
2018-09-21T07:12:44.750Z,99.90
2018-09-21T07:15:13.721Z,99.90
2018-09-21T07:17:42.802Z,99.90
2018-09-21T07:20:11.552Z,99.90
2018-09-21T07:25:34.245Z,99.90
2018-09-21T07:28:03.568Z,99.90
2018-09-21T07:30:32.886Z,99.90
2018-09-21T07:33:01.893Z,99.90
2018-09-21T07:35:31.304Z,99.90
2018-09-21T07:38:00.201Z,99.90
2018-09-21T07:40:29.125Z,99.90
2018-09-21T07:42:58.036Z,99.90
2018-09-21T07:45:27.074Z,99.90
2018-09-21T07:47:56.259Z,99.90
2018-09-21T07:50:25.120Z,99.90
2018-09-21T07:52:53.960Z,99.90
2018-09-21T07:55:23.016Z,99.90
2018-09-21T07:57:52.085Z,99.90
2018-09-21T08:00:20.864Z,99.90
2018-09-21T08:02:50.571Z,99.90
2018-09-21T08:05:23.647Z,99.90
2018-09-21T08:07:53.193Z,99.90
2018-09-21T08:10:22.298Z,99.90
2018-09-21T08:12:51.461Z,99.90
2018-09-21T08:15:20.304Z,99.90
2018-09-21T08:17:50.155Z,99.90
2018-09-21T08:20:19.298Z,99.90
2018-09-21T08:22:48.185Z,99.90
2018-09-21T08:25:17.731Z,99.90
2018-09-21T08:27:46.516Z,99.90
2018-09-21T08:30:15.234Z,99.90
2018-09-21T08:32:43.909Z,99.90
2018-09-21T08:35:12.706Z,99.90
2018-09-21T08:37:41.658Z,99.90
2018-09-21T08:40:11.577Z,99.90
2018-09-21T08:42:40.344Z,99.90
2018-09-21T08:45:09.228Z,99.90
2018-09-21T08:47:38.090Z,99.90
2018-09-21T08:50:07.997Z,99.90
2018-09-21T08:52:37.642Z,99.90
2018-09-21T08:55:07.447Z,99.90
2018-09-21T08:57:36.203Z,99.90
2018-09-21T09:00:06.118Z,99.90
2018-09-21T09:02:36.503Z,99.90
2018-09-21T09:05:06.130Z,99.90
2018-09-21T09:07:35.045Z,98.90
2018-09-21T09:10:03.877Z,99.90
2018-09-21T09:12:32.860Z,99.90
2018-09-21T09:15:01.881Z,98.40
2018-09-21T09:17:30.700Z,98.00
2018-09-21T09:19:59.560Z,96.20
2018-09-21T09:22:28.465Z,95.40
2018-09-21T09:24:57.290Z,93.20
2018-09-21T09:27:26.207Z,92.10
2018-09-21T09:29:55.131Z,94.40
2018-09-21T09:32:23.941Z,93.90
2018-09-21T09:34:52.954Z,93.50
2018-09-21T09:37:21.876Z,93.40
2018-09-21T09:39:51.389Z,93.80
2018-09-21T09:42:20.336Z,94.80
2018-09-21T09:44:49.221Z,96.30
2018-09-21T09:47:18.031Z,98.10
2018-09-21T09:49:47.219Z,98.00
2018-09-21T09:52:16.682Z,98.10
2018-09-21T09:54:45.846Z,97.10
2018-09-21T09:57:14.837Z,96.60
2018-09-21T09:59:44.493Z,96.70
2018-09-21T10:02:13.451Z,96.20
2018-09-21T10:04:42.311Z,95.40
2018-09-21T10:07:11.056Z,95.80
2018-09-21T10:09:39.814Z,96.70
2018-09-21T10:12:08.532Z,97.30
2018-09-21T10:14:37.591Z,97.50
2018-09-21T10:17:06.565Z,97.50
2018-09-21T10:19:35.625Z,97.10
2018-09-21T10:22:05.225Z,97.10
2018-09-21T10:24:34.605Z,97.40
2018-09-21T10:27:03.610Z,97.80
2018-09-21T10:29:32.276Z,97.70
2018-09-21T10:32:01.186Z,98.50
2018-09-21T10:34:29.951Z,98.60
2018-09-21T10:36:59.367Z,98.90
2018-09-21T10:39:28.915Z,98.70
2018-09-21T10:41:58.066Z,98.70
2018-09-21T10:44:27.521Z,99.30
2018-09-21T10:46:56.483Z,99.90
2018-09-21T10:49:25.385Z,99.50
2018-09-21T10:51:54.135Z,99.90
2018-09-21T10:54:23.136Z,99.90
2018-09-21T10:56:51.871Z,99.90
2018-09-21T10:59:20.865Z,99.90
2018-09-21T11:01:49.792Z,99.90
2018-09-21T11:04:19.221Z,99.90
2018-09-21T11:06:48.110Z,99.70
2018-09-21T11:09:16.931Z,99.10
2018-09-21T11:11:45.878Z,99.30
2018-09-21T11:14:14.680Z,99.90
2018-09-21T11:16:43.531Z,99.90
2018-09-21T11:19:12.520Z,99.90
2018-09-21T11:21:41.556Z,99.90
2018-09-21T11:24:11.024Z,99.90
2018-09-21T11:26:39.922Z,99.90
2018-09-21T11:29:09.493Z,99.90
2018-09-21T11:31:38.294Z,99.90
2018-09-21T11:34:07.118Z,99.90
2018-09-21T11:36:36.139Z,99.90
2018-09-21T11:39:06.710Z,99.90
2018-09-21T11:41:35.736Z,99.90
2018-09-21T11:44:04.810Z,99.90
2018-09-21T11:46:34.074Z,99.90
2018-09-21T11:49:02.839Z,99.90
2018-09-21T11:51:31.729Z,99.90
2018-09-21T11:54:00.946Z,99.90
2018-09-21T11:56:29.926Z,99.90
2018-09-21T11:58:58.693Z,99.90
2018-09-21T12:01:28.259Z,99.90
2018-09-21T12:03:57.906Z,99.90
2018-09-21T12:06:26.852Z,99.90
2018-09-21T12:08:55.746Z,99.90
2018-09-21T12:11:25.157Z,99.90
2018-09-21T12:13:53.913Z,99.90
2018-09-21T12:16:22.708Z,99.90
2018-09-21T12:18:51.612Z,99.90
2018-09-21T12:21:21.239Z,99.90
2018-09-21T12:23:50.196Z,99.90
2018-09-21T12:26:19.088Z,99.90
2018-09-21T12:28:47.997Z,99.90
2018-09-21T12:31:16.973Z,99.90
2018-09-21T12:33:46.717Z,99.90
2018-09-21T12:36:16.250Z,99.90
2018-09-21T12:38:45.046Z,99.90
2018-09-21T12:41:13.696Z,99.90
2018-09-21T12:43:42.557Z,99.90
2018-09-21T12:46:19.369Z,99.90
2018-09-21T12:48:48.539Z,99.90
2018-09-21T12:51:17.450Z,99.90
2018-09-21T12:53:46.164Z,99.90
2018-09-21T12:56:15.161Z,99.90
2018-09-21T12:58:45.236Z,99.90
2018-09-21T13:01:15.585Z,99.90
2018-09-21T13:03:44.517Z,99.90
2018-09-21T13:06:13.343Z,99.90
2018-09-21T13:08:42.297Z,99.90
2018-09-21T13:11:11.302Z,99.90
2018-09-21T13:13:40.157Z,99.90
2018-09-21T13:16:09.061Z,99.90
2018-09-21T13:18:37.948Z,99.90
2018-09-21T13:21:06.984Z,99.90
2018-09-21T13:23:36.469Z,99.90
2018-09-21T13:26:05.951Z,99.90
2018-09-21T13:28:34.771Z,99.90
2018-09-21T13:31:04.829Z,99.90
2018-09-21T13:33:34.278Z,99.90
2018-09-21T13:36:06.635Z,99.90
2018-09-21T13:38:36.178Z,99.90
2018-09-21T13:41:05.183Z,99.90
2018-09-21T13:43:34.336Z,99.90
2018-09-21T13:46:05.614Z,99.90
2018-09-21T13:48:34.588Z,99.90
2018-09-21T13:51:03.424Z,99.90
2018-09-21T13:53:38.318Z,99.90
2018-09-21T13:56:07.396Z,99.90
2018-09-21T13:58:37.577Z,99.90
2018-09-21T14:01:06.527Z,99.90
2018-09-21T14:03:36.425Z,99.90
2018-09-21T14:06:06.581Z,99.90
2018-09-21T14:08:45.280Z,99.90
2018-09-21T14:11:14.136Z,99.90
2018-09-21T14:13:44.552Z,99.90
2018-09-21T14:16:15.912Z,99.90
2018-09-21T14:18:45.947Z,99.90
2018-09-21T14:21:14.943Z,99.90
2018-09-21T14:23:43.712Z,99.90
2018-09-21T14:26:12.748Z,99.90
2018-09-21T14:28:41.622Z,99.60
2018-09-21T14:31:10.460Z,99.90
2018-09-21T14:33:39.398Z,99.60
2018-09-21T14:36:08.603Z,99.70
2018-09-21T14:38:37.471Z,99.10
2018-09-21T14:41:07.042Z,98.70
2018-09-21T14:43:36.253Z,99.20
2018-09-21T14:46:05.311Z,98.50
2018-09-21T14:48:34.736Z,98.40
2018-09-21T14:51:04.055Z,99.00
2018-09-21T14:53:33.197Z,97.60
2018-09-21T14:56:02.305Z,97.90
2018-09-21T14:58:31.237Z,97.50
2018-09-21T15:01:00.098Z,97.70
2018-09-21T15:03:29.148Z,96.70
2018-09-21T15:05:58.233Z,96.90
2018-09-21T15:08:28.166Z,97.00
2018-09-21T15:10:57.133Z,97.20
2018-09-21T15:13:25.990Z,97.00
2018-09-21T15:15:54.888Z,96.60
2018-09-21T15:18:24.719Z,97.00
2018-09-21T15:20:53.854Z,97.20
2018-09-21T15:23:23.508Z,97.10
2018-09-21T15:25:52.970Z,97.20
2018-09-21T15:28:38.026Z,97.40
2018-09-21T15:31:07.250Z,97.80
2018-09-21T15:33:36.323Z,97.80
2018-09-21T15:36:16.657Z,97.90
2018-09-21T15:39:07.629Z,98.20
2018-09-21T15:41:36.627Z,98.80
2018-09-21T15:44:05.609Z,98.90
2018-09-21T15:46:35.506Z,99.00
2018-09-21T15:49:04.962Z,99.80
2018-09-21T15:51:34.285Z,99.70
2018-09-21T15:54:03.406Z,99.90
2018-09-21T15:56:32.514Z,99.90
2018-09-21T15:59:01.432Z,99.90
2018-09-21T16:01:30.347Z,99.90
2018-09-21T16:03:59.992Z,99.90
2018-09-21T16:06:32.576Z,99.90
2018-09-21T16:09:02.927Z,99.90
2018-09-21T16:11:31.896Z,99.90
2018-09-21T16:14:01.059Z,99.90
2018-09-21T16:16:30.237Z,99.90
2018-09-21T16:18:59.288Z,99.90
2018-09-21T16:21:28.849Z,99.90
2018-09-21T16:23:58.963Z,99.90
2018-09-21T16:26:28.960Z,99.90
2018-09-21T16:28:58.358Z,99.90
2018-09-21T16:31:27.593Z,99.90
2018-09-21T16:33:56.791Z,99.90
2018-09-21T16:36:25.790Z,99.90
2018-09-21T16:38:55.554Z,99.90
2018-09-21T16:41:24.507Z,99.90
2018-09-21T16:43:53.436Z,99.90
2018-09-21T16:46:23.114Z,99.90
2018-09-21T16:48:52.240Z,99.90
2018-09-21T16:51:21.373Z,99.90
2018-09-21T16:53:50.465Z,99.90
2018-09-21T16:56:19.500Z,99.90
2018-09-21T16:58:48.470Z,99.90
2018-09-21T17:01:18.330Z,99.90
2018-09-21T17:03:49.604Z,99.90
2018-09-21T17:06:18.640Z,99.90
2018-09-21T17:08:48.592Z,99.90
2018-09-21T17:11:17.826Z,99.90
2018-09-21T17:13:46.525Z,99.90
2018-09-21T17:16:15.552Z,99.90
2018-09-21T17:18:44.758Z,99.90
2018-09-21T17:21:13.835Z,99.90
2018-09-21T17:23:43.380Z,99.90
2018-09-21T17:26:12.445Z,99.90
2018-09-21T17:28:41.747Z,99.90
2018-09-21T17:31:10.910Z,99.90
2018-09-21T17:33:40.185Z,99.90
2018-09-21T17:36:09.967Z,99.90
2018-09-21T17:38:39.559Z,99.90
2018-09-21T17:41:08.444Z,99.90
2018-09-21T17:43:38.061Z,99.90
2018-09-21T17:46:06.921Z,99.90
2018-09-21T17:48:39.557Z,99.90
2018-09-21T17:51:08.686Z,99.90
2018-09-21T17:53:37.487Z,99.90
2018-09-21T17:56:06.262Z,99.90
2018-09-21T17:58:35.284Z,99.90
2018-09-21T18:01:04.641Z,99.90
2018-09-21T18:03:33.510Z,99.90
2018-09-21T18:06:02.582Z,99.90
2018-09-21T18:08:31.529Z,99.90
2018-09-21T18:11:00.581Z,99.90
2018-09-21T18:13:29.557Z,99.90
2018-09-21T18:16:00.507Z,99.90
2018-09-21T18:18:29.370Z,99.90
2018-09-21T18:20:58.316Z,99.90
2018-09-21T18:23:27.178Z,99.90
2018-09-21T18:25:56.061Z,99.90
2018-09-21T18:28:25.092Z,99.90
2018-09-21T18:30:54.179Z,99.90
2018-09-21T18:33:23.082Z,99.90
2018-09-21T18:35:51.964Z,99.90
2018-09-21T18:38:20.993Z,99.90
2018-09-21T18:40:50.167Z,99.90
2018-09-21T18:43:19.016Z,99.90
2018-09-21T18:45:47.841Z,99.90
2018-09-21T18:48:16.825Z,99.90
2018-09-21T18:50:46.078Z,99.90
2018-09-21T18:53:15.083Z,99.90
2018-09-21T18:55:44.168Z,99.90
2018-09-21T18:58:13.214Z,99.90
2018-09-21T19:00:42.406Z,99.90
2018-09-21T19:03:12.583Z,99.90
2018-09-21T19:05:41.471Z,99.90
2018-09-21T19:08:10.495Z,99.90
2018-09-21T19:10:40.085Z,99.90
2018-09-21T19:13:09.037Z,99.90
2018-09-21T19:15:38.117Z,99.90
2018-09-21T19:18:07.225Z,99.90
2018-09-21T19:20:36.584Z,99.90
2018-09-21T19:23:05.858Z,99.90
2018-09-21T19:25:35.111Z,99.90
2018-09-21T19:28:04.310Z,99.90
2018-09-21T19:30:33.465Z,99.90
2018-09-21T19:33:02.702Z,99.90
2018-09-21T19:35:31.869Z,99.90
2018-09-21T19:38:00.951Z,99.90
2018-09-21T19:40:29.810Z,99.90
2018-09-21T19:42:58.700Z,99.90
2018-09-21T19:45:27.785Z,99.90
2018-09-21T19:47:57.400Z,99.90
2018-09-21T19:50:26.226Z,99.90
2018-09-21T19:52:56.021Z,99.90
2018-09-21T19:55:24.952Z,99.90
2018-09-21T19:57:54.105Z,99.90
2018-09-21T20:00:23.359Z,99.90
2018-09-21T20:02:52.266Z,99.90
2018-09-21T20:05:21.125Z,99.90
2018-09-21T20:07:50.158Z,99.90
2018-09-21T20:10:19.334Z,99.90
2018-09-21T20:12:48.361Z,99.90
2018-09-21T20:15:17.454Z,99.90
2018-09-21T20:17:46.289Z,99.90
2018-09-21T20:20:15.237Z,99.90
2018-09-21T20:22:44.187Z,99.90
2018-09-21T20:25:13.044Z,99.90
2018-09-21T20:27:41.867Z,99.90
2018-09-21T20:30:16.177Z,99.90
2018-09-21T20:32:50.480Z,99.90
2018-09-21T20:35:19.491Z,99.90
2018-09-21T20:37:48.294Z,99.90
2018-09-21T20:40:17.824Z,99.90
2018-09-21T20:42:47.017Z,99.90
2018-09-21T20:45:16.158Z,99.90
2018-09-21T20:47:45.679Z,99.90
2018-09-21T20:50:14.641Z,99.90
2018-09-21T20:52:43.772Z,99.90
2018-09-21T20:55:12.721Z,99.90
2018-09-21T20:57:41.605Z,99.90
2018-09-21T21:00:10.588Z,99.90
2018-09-21T21:02:39.683Z,99.90
2018-09-21T21:05:08.653Z,99.90
2018-09-21T21:07:37.485Z,99.90
2018-09-21T21:10:06.438Z,99.90
2018-09-21T21:12:35.432Z,99.90
2018-09-21T21:15:04.257Z,99.90
2018-09-21T21:17:33.229Z,99.90
2018-09-21T21:20:02.203Z,99.90
2018-09-21T21:22:31.021Z,99.90
2018-09-21T21:24:59.894Z,99.90
2018-09-21T21:27:28.752Z,99.90
2018-09-21T21:29:58.708Z,99.90
2018-09-21T21:32:27.530Z,99.90
2018-09-21T21:34:56.437Z,99.90
2018-09-21T21:37:25.301Z,99.90
2018-09-21T21:39:54.233Z,99.90
2018-09-21T21:42:23.117Z,99.90
2018-09-21T21:44:51.877Z,99.90
2018-09-21T21:47:20.806Z,99.90
2018-09-21T21:49:49.549Z,99.90
2018-09-21T21:52:18.693Z,99.90
2018-09-21T21:54:47.618Z,99.90
2018-09-21T21:57:17.004Z,99.90
2018-09-21T21:59:46.110Z,99.90
2018-09-21T22:02:15.016Z,99.90
2018-09-21T22:04:43.855Z,99.90
2018-09-21T22:07:13.092Z,99.90
2018-09-21T22:09:42.025Z,99.90
2018-09-21T22:12:16.196Z,99.90
2018-09-21T22:14:45.316Z,99.90
2018-09-21T22:17:14.188Z,99.90
2018-09-21T22:19:43.004Z,99.90
2018-09-21T22:22:12.128Z,99.90
2018-09-21T22:24:41.128Z,99.90
2018-09-21T22:27:09.888Z,99.90
2018-09-21T22:29:38.858Z,99.90
2018-09-21T22:32:07.797Z,99.90
2018-09-21T22:34:36.582Z,99.90
2018-09-21T22:37:05.482Z,99.90
2018-09-21T22:39:34.937Z,99.90
2018-09-21T22:42:03.872Z,99.90
2018-09-21T22:44:32.860Z,99.90
2018-09-21T22:47:01.741Z,99.90
2018-09-21T22:49:30.572Z,99.90
2018-09-21T22:51:59.552Z,99.90
2018-09-21T22:54:29.053Z,99.90
2018-09-21T22:56:58.065Z,99.90
2018-09-21T22:59:26.952Z,99.90
2018-09-21T23:01:55.816Z,99.90
2018-09-21T23:04:24.738Z,99.90
2018-09-21T23:06:54.257Z,99.90
2018-09-21T23:09:23.004Z,99.90
2018-09-21T23:11:51.806Z,99.90
2018-09-21T23:14:20.883Z,99.90
2018-09-21T23:16:49.812Z,99.90
2018-09-21T23:19:19.257Z,99.90
2018-09-21T23:21:48.245Z,99.90
2018-09-21T23:24:17.052Z,99.90
2018-09-21T23:26:46.029Z,99.90
2018-09-21T23:29:15.313Z,99.90
2018-09-21T23:31:44.062Z,99.90
2018-09-21T23:34:13.715Z,99.90
2018-09-21T23:36:42.590Z,99.90
2018-09-21T23:39:11.562Z,99.90
2018-09-21T23:41:40.521Z,99.90
2018-09-21T23:44:09.716Z,99.90
2018-09-21T23:46:38.818Z,99.90
2018-09-21T23:49:07.760Z,99.90
2018-09-21T23:51:37.363Z,99.90
2018-09-21T23:54:06.493Z,99.90
2018-09-21T23:56:35.787Z,99.90
2018-09-21T23:59:04.849Z,99.90
